createdAt,value
2019-04-18T00:00:14.287Z,102308.69
2019-04-18T00:02:52.327Z,102311.41
2019-04-18T00:05:25.000Z,102309.27
2019-04-18T00:07:51.833Z,102308.63
2019-04-18T00:10:18.909Z,102306.70
2019-04-18T00:12:45.587Z,102306.47
2019-04-18T00:15:12.784Z,102300.52
2019-04-18T00:17:39.667Z,102299.71
2019-04-18T00:20:06.437Z,102305.29
2019-04-18T00:22:34.217Z,102303.94
2019-04-18T00:25:05.049Z,102302.62
2019-04-18T00:27:30.185Z,102301.13
2019-04-18T00:29:59.659Z,102304.14
2019-04-18T00:32:25.701Z,102306.06
2019-04-18T00:34:52.495Z,102307.25
2019-04-18T00:37:20.778Z,102308.19
2019-04-18T00:39:47.825Z,102305.32
2019-04-18T00:42:14.534Z,102306.33
2019-04-18T00:44:41.295Z,102307.95
2019-04-18T00:47:08.097Z,102308.52
2019-04-18T00:49:34.860Z,102314.77
2019-04-18T00:52:01.603Z,102315.08
2019-04-18T00:54:28.378Z,102312.84
2019-04-18T00:56:55.101Z,102313.21
2019-04-18T00:59:23.903Z,102312.53
2019-04-18T01:01:50.462Z,102315.97
2019-04-18T01:04:26.172Z,102315.38
2019-04-18T01:06:48.853Z,102312.95
2019-04-18T01:09:14.823Z,102311.63
2019-04-18T01:11:41.705Z,102316.62
2019-04-18T01:14:08.595Z,102313.44
2019-04-18T01:16:35.473Z,102308.63
2019-04-18T01:19:02.353Z,102315.06
2019-04-18T01:21:29.017Z,102316.55
2019-04-18T01:23:56.429Z,102320.73
2019-04-18T01:26:23.395Z,102319.77
2019-04-18T01:28:50.150Z,102314.83
2019-04-18T01:31:16.831Z,102316.95
2019-04-18T01:33:43.727Z,102318.94
2019-04-18T01:36:10.881Z,102321.20
2019-04-18T01:38:39.035Z,102314.83
2019-04-18T01:41:30.457Z,102315.48
2019-04-18T01:44:14.540Z,102316.59
2019-04-18T01:46:45.138Z,102317.89
2019-04-18T01:49:12.179Z,102308.94
2019-04-18T01:51:38.998Z,102314.77
2019-04-18T01:54:10.499Z,102311.95
2019-04-18T01:56:34.438Z,102312.37
2019-04-18T01:59:06.594Z,102318.70
2019-04-18T02:01:30.986Z,102317.45
2019-04-18T02:03:57.762Z,102316.20
2019-04-18T02:06:24.774Z,102316.91
2019-04-18T02:08:52.684Z,102315.20
2019-04-18T02:11:19.425Z,102319.82
2019-04-18T02:13:49.116Z,102319.17
2019-04-18T02:16:14.764Z,102321.16
2019-04-18T02:18:41.559Z,102326.28
2019-04-18T02:21:10.823Z,102326.47
2019-04-18T02:23:37.083Z,102329.48
2019-04-18T02:26:03.874Z,102327.53
2019-04-18T02:28:30.867Z,102327.77
2019-04-18T02:30:58.509Z,102327.40
2019-04-18T02:33:25.187Z,102328.87
2019-04-18T02:35:51.854Z,102329.94
2019-04-18T02:38:19.921Z,102327.30
2019-04-18T02:40:47.646Z,102328.73
2019-04-18T02:43:14.520Z,102328.41
2019-04-18T02:45:41.301Z,102327.98
2019-04-18T02:48:08.062Z,102324.28
2019-04-18T02:50:38.280Z,102324.06
2019-04-18T02:53:03.632Z,102325.48
2019-04-18T02:55:51.429Z,102324.42
2019-04-18T02:58:40.799Z,102324.28
2019-04-18T03:01:15.654Z,102324.47
2019-04-18T03:03:54.501Z,102329.45
2019-04-18T03:06:21.297Z,102330.89
2019-04-18T03:08:48.805Z,102330.02
2019-04-18T03:11:18.858Z,102320.41
2019-04-18T03:13:44.903Z,102323.08
2019-04-18T03:16:12.712Z,102321.70
2019-04-18T03:18:40.587Z,102318.77
2019-04-18T03:21:07.469Z,102323.28
2019-04-18T03:23:39.070Z,102322.95
2019-04-18T03:26:03.002Z,102322.91
2019-04-18T03:28:29.675Z,102318.81
2019-04-18T03:31:02.718Z,102318.48
2019-04-18T03:33:26.051Z,102325.30
2019-04-18T03:35:53.320Z,102324.02
2019-04-18T03:38:21.709Z,102326.77
2019-04-18T03:40:48.389Z,102321.48
2019-04-18T03:43:15.411Z,102329.30
2019-04-18T03:45:56.421Z,102331.42
2019-04-18T03:48:23.147Z,102336.73
2019-04-18T03:50:50.949Z,102332.85
2019-04-18T03:53:18.387Z,102345.36
2019-04-18T03:55:55.391Z,102327.61
2019-04-18T03:58:18.585Z,102343.41
2019-04-18T04:00:46.475Z,102346.13
2019-04-18T04:03:16.103Z,102353.27
2019-04-18T04:05:41.942Z,102350.70
2019-04-18T04:08:09.027Z,102353.08
2019-04-18T04:10:36.723Z,102360.31
2019-04-18T04:13:03.541Z,102361.55
2019-04-18T04:15:30.338Z,102359.47
2019-04-18T04:18:08.656Z,102358.98
2019-04-18T04:20:35.006Z,102363.41
2019-04-18T04:23:01.747Z,102371.30
2019-04-18T04:25:28.498Z,102371.44
2019-04-18T04:27:55.783Z,102378.52
2019-04-18T04:30:22.597Z,102368.52
2019-04-18T04:32:49.256Z,102379.47
2019-04-18T04:35:17.667Z,102378.62
2019-04-18T04:37:45.724Z,102384.97
2019-04-18T04:40:12.659Z,102379.98
2019-04-18T04:42:39.661Z,102386.77
2019-04-18T04:45:07.113Z,102385.91
2019-04-18T04:47:48.707Z,102391.10
2019-04-18T04:50:23.314Z,102389.55
2019-04-18T04:52:50.886Z,102396.27
2019-04-18T04:55:19.229Z,102395.84
2019-04-18T04:58:02.577Z,102395.17
2019-04-18T05:00:47.469Z,102395.15
2019-04-18T05:03:16.842Z,102400.83
2019-04-18T05:05:42.805Z,102401.68
2019-04-18T05:08:09.781Z,102410.05
2019-04-18T05:10:36.610Z,102414.45
2019-04-18T05:13:03.383Z,102408.41
2019-04-18T05:15:30.198Z,102417.45
2019-04-18T05:17:56.882Z,102416.98
2019-04-18T05:20:23.671Z,102421.84
2019-04-18T05:22:54.534Z,102423.63
2019-04-18T05:25:20.239Z,102425.47
2019-04-18T05:27:46.912Z,102428.59
2019-04-18T05:30:14.241Z,102432.45
2019-04-18T05:32:42.678Z,102431.66
2019-04-18T05:35:09.941Z,102436.05
2019-04-18T05:37:36.845Z,102436.45
2019-04-18T05:40:04.840Z,102441.84
2019-04-18T05:42:32.366Z,102442.47
2019-04-18T05:46:20.423Z,102439.02
2019-04-18T05:48:51.891Z,102441.84
2019-04-18T05:51:23.401Z,102443.23
2019-04-18T05:54:09.349Z,102442.42
2019-04-18T05:56:36.460Z,102444.73
2019-04-18T05:59:25.802Z,102454.38
2019-04-18T06:02:15.963Z,102447.91
2019-04-18T06:04:51.966Z,102455.20
2019-04-18T06:07:41.396Z,102453.65
2019-04-18T06:10:14.608Z,102459.20
2019-04-18T06:12:58.597Z,102458.59
2019-04-18T06:15:37.501Z,102457.57
2019-04-18T06:18:13.856Z,102459.41
2019-04-18T06:20:40.538Z,102471.02
2019-04-18T06:23:08.655Z,102472.01
2019-04-18T06:25:39.730Z,102473.01
2019-04-18T06:28:16.690Z,102476.03
2019-04-18T06:31:12.560Z,102478.73
2019-04-18T06:33:40.761Z,102474.75
2019-04-18T06:36:07.684Z,102480.95
2019-04-18T06:38:34.595Z,102481.98
2019-04-18T06:41:05.084Z,102481.17
2019-04-18T06:43:30.558Z,102484.03
2019-04-18T06:45:57.271Z,102487.92
2019-04-18T06:48:26.596Z,102491.34
2019-04-18T06:50:56.874Z,102492.16
2019-04-18T06:53:22.998Z,102489.22
2019-04-18T06:55:51.104Z,102488.88
2019-04-18T06:58:32.630Z,102494.42
2019-04-18T07:00:46.926Z,102500.60
2019-04-18T07:03:16.992Z,102499.50
2019-04-18T07:05:43.000Z,102504.02
2019-04-18T07:08:14.291Z,102508.59
2019-04-18T07:10:56.887Z,102505.98
2019-04-18T07:13:29.600Z,102505.98
2019-04-18T07:15:56.379Z,102509.37
2019-04-18T07:18:25.825Z,102512.05
2019-04-18T07:20:59.361Z,102512.05
2019-04-18T07:23:30.276Z,102513.34
2019-04-18T07:25:57.422Z,102515.01
2019-04-18T07:28:25.590Z,102514.66
2019-04-18T07:30:52.657Z,102519.05
2019-04-18T07:33:19.864Z,102519.80
2019-04-18T07:35:46.811Z,102507.25
2019-04-18T07:38:13.614Z,102517.33
2019-04-18T07:40:43.837Z,102517.33
2019-04-18T07:43:09.621Z,102520.45
2019-04-18T07:45:36.351Z,102530.20
2019-04-18T07:48:03.447Z,102530.20
2019-04-18T07:50:30.524Z,102529.25
2019-04-18T07:52:57.200Z,102529.25
2019-04-18T07:55:30.047Z,102529.80
2019-04-18T07:57:56.576Z,102529.06
2019-04-18T08:00:25.638Z,102530.98
2019-04-18T08:02:53.426Z,102532.82
2019-04-18T08:05:20.705Z,102538.16
2019-04-18T08:07:47.598Z,102532.05
2019-04-18T08:10:23.908Z,102532.59
2019-04-18T08:12:43.368Z,102537.23
2019-04-18T08:15:10.865Z,102539.51
2019-04-18T08:17:38.500Z,102538.50
2019-04-18T08:20:05.608Z,102546.98
2019-04-18T08:22:32.296Z,102539.77
2019-04-18T08:24:58.979Z,102541.77
2019-04-18T08:27:25.900Z,102540.12
2019-04-18T08:29:52.678Z,102538.98
2019-04-18T08:32:19.520Z,102536.60
2019-04-18T08:34:47.326Z,102540.47
2019-04-18T08:37:16.414Z,102538.58
2019-04-18T08:39:49.126Z,102533.47
2019-04-18T08:42:41.810Z,102539.77
2019-04-18T08:45:31.842Z,102541.63
2019-04-18T08:47:58.843Z,102540.38
2019-04-18T08:50:31.983Z,102541.45
2019-04-18T08:52:58.760Z,102537.57
2019-04-18T08:55:39.291Z,102545.08
2019-04-18T08:58:06.196Z,102542.88
2019-04-18T09:00:33.054Z,102540.36
2019-04-18T09:02:59.757Z,102540.84
2019-04-18T09:05:30.794Z,102539.56
2019-04-18T09:07:56.226Z,102544.70
2019-04-18T09:10:23.937Z,102541.66
2019-04-18T09:12:51.348Z,102539.94
2019-04-18T09:15:18.845Z,102540.55
2019-04-18T09:17:48.828Z,102544.47
2019-04-18T09:20:16.794Z,102537.64
2019-04-18T09:22:44.755Z,102537.52
2019-04-18T09:25:12.171Z,102543.45
2019-04-18T09:27:39.037Z,102541.13
2019-04-18T09:30:07.148Z,102540.03
2019-04-18T09:32:34.297Z,102529.31
2019-04-18T09:35:03.052Z,102533.27
2019-04-18T09:37:29.962Z,102534.56
2019-04-18T09:39:56.685Z,102529.31
2019-04-18T09:42:25.978Z,102531.21
2019-04-18T09:44:53.858Z,102533.17
2019-04-18T09:47:22.194Z,102527.11
2019-04-18T09:49:49.442Z,102525.88
2019-04-18T09:52:16.197Z,102531.34
2019-04-18T09:54:43.117Z,102523.97
2019-04-18T09:57:09.975Z,102528.36
2019-04-18T09:59:36.642Z,102523.89
2019-04-18T10:02:03.466Z,102529.57
2019-04-18T10:04:30.358Z,102521.28
2019-04-18T10:06:57.354Z,102524.70
2019-04-18T10:09:25.043Z,102529.58
2019-04-18T10:11:51.845Z,102526.78
2019-04-18T10:14:18.510Z,102521.09
2019-04-18T10:16:45.198Z,102524.11
2019-04-18T10:19:11.979Z,102524.80
2019-04-18T10:21:45.903Z,102524.78
2019-04-18T10:24:14.304Z,102525.15
2019-04-18T10:26:51.599Z,102516.45
2019-04-18T10:29:26.010Z,102516.87
2019-04-18T10:31:52.774Z,102520.72
2019-04-18T10:34:20.309Z,102520.52
2019-04-18T10:36:47.037Z,102521.28
2019-04-18T10:39:14.768Z,102520.54
2019-04-18T10:41:41.561Z,102519.13
2019-04-18T10:44:08.368Z,102515.19
2019-04-18T10:46:35.138Z,102517.09
2019-04-18T10:49:02.427Z,102514.73
2019-04-18T10:51:29.213Z,102516.86
2019-04-18T10:53:55.898Z,102514.27
2019-04-18T10:56:22.686Z,102515.20
2019-04-18T10:58:50.774Z,102512.67
2019-04-18T11:01:17.674Z,102509.94
2019-04-18T11:03:44.426Z,102509.52
2019-04-18T11:06:21.259Z,102508.25
2019-04-18T11:08:39.970Z,102509.09
2019-04-18T11:11:06.823Z,102508.83
2019-04-18T11:13:33.639Z,102500.81
2019-04-18T11:16:00.521Z,102502.62
2019-04-18T11:18:27.305Z,102504.00
2019-04-18T11:20:54.096Z,102497.54
2019-04-18T11:23:20.905Z,102499.28
2019-04-18T11:25:48.062Z,102490.29
2019-04-18T11:28:14.786Z,102497.71
2019-04-18T11:30:41.436Z,102496.09
2019-04-18T11:33:08.117Z,102498.59
2019-04-18T11:35:34.898Z,102487.80
2019-04-18T11:38:01.691Z,102490.78
2019-04-18T11:40:29.478Z,102494.37
2019-04-18T11:42:57.019Z,102493.48
2019-04-18T11:45:24.235Z,102489.19
2019-04-18T11:47:51.082Z,102481.29
2019-04-18T11:50:19.240Z,102491.20
2019-04-18T11:52:46.170Z,102483.72
2019-04-18T11:55:14.237Z,102482.45
2019-04-18T11:57:41.115Z,102486.25
2019-04-18T12:00:27.124Z,102483.83
2019-04-18T12:02:54.104Z,102476.72
2019-04-18T12:05:23.388Z,102481.33
2019-04-18T12:07:50.321Z,102477.62
2019-04-18T12:10:17.102Z,102475.28
2019-04-18T12:12:47.756Z,102476.00
2019-04-18T12:15:14.588Z,102472.70
2019-04-18T12:17:44.451Z,102473.05
2019-04-18T12:20:12.207Z,102476.44
2019-04-18T12:22:40.514Z,102474.53
2019-04-18T12:25:09.714Z,102468.61
2019-04-18T12:27:37.616Z,102469.15
2019-04-18T12:30:06.619Z,102468.89
2019-04-18T12:32:33.998Z,102472.57
2019-04-18T12:35:01.067Z,102474.19
2019-04-18T12:37:29.280Z,102467.11
2019-04-18T12:39:57.231Z,102465.38
2019-04-18T12:42:25.039Z,102469.63
2019-04-18T12:44:52.582Z,102458.65
2019-04-18T12:47:19.833Z,102461.45
2019-04-18T12:49:48.439Z,102466.31
2019-04-18T12:52:16.654Z,102457.11
2019-04-18T12:54:45.953Z,102453.77
2019-04-18T12:57:13.550Z,102453.77
2019-04-18T12:59:40.355Z,102456.67
2019-04-18T13:02:07.492Z,102456.97
2019-04-18T13:04:34.606Z,102455.46
2019-04-18T13:07:01.705Z,102452.42
2019-04-18T13:09:40.069Z,102448.53
2019-04-18T13:12:29.337Z,102450.09
2019-04-18T13:15:08.747Z,102443.55
2019-04-18T13:17:38.797Z,102451.36
2019-04-18T13:20:06.827Z,102447.15
2019-04-18T13:22:34.003Z,102444.53
2019-04-18T13:25:00.893Z,102444.08
2019-04-18T13:27:27.682Z,102444.51
2019-04-18T13:29:54.466Z,102445.66
2019-04-18T13:32:22.369Z,102445.89
2019-04-18T13:34:49.445Z,102439.82
2019-04-18T13:37:16.666Z,102439.86
2019-04-18T13:39:43.437Z,102435.85
2019-04-18T13:42:11.206Z,102440.91
2019-04-18T13:44:38.770Z,102444.09
2019-04-18T13:47:06.030Z,102440.81
2019-04-18T13:49:32.809Z,102433.67
2019-04-18T13:51:59.616Z,102435.21
2019-04-18T13:54:26.452Z,102440.19
2019-04-18T13:56:53.230Z,102439.06
2019-04-18T13:59:20.008Z,102434.98
2019-04-18T14:01:46.908Z,102439.52
2019-04-18T14:04:13.800Z,102437.06
2019-04-18T14:06:40.489Z,102433.66
2019-04-18T14:09:07.970Z,102426.05
2019-04-18T14:11:36.345Z,102427.17
2019-04-18T14:14:04.277Z,102423.61
2019-04-18T14:16:31.084Z,102420.31
2019-04-18T14:18:58.498Z,102416.94
2019-04-18T14:21:26.573Z,102420.28
2019-04-18T14:23:53.398Z,102413.62
2019-04-18T14:26:20.062Z,102408.78
2019-04-18T14:28:46.858Z,102405.23
2019-04-18T14:31:13.674Z,102413.33
2019-04-18T14:33:40.575Z,102406.37
2019-04-18T14:36:07.122Z,102408.79
2019-04-18T14:38:33.814Z,102411.30
2019-04-18T14:41:01.051Z,102406.37
2019-04-18T14:43:29.031Z,102406.54
2019-04-18T14:45:55.952Z,102409.67
2019-04-18T14:48:25.117Z,102408.75
2019-04-18T14:50:55.909Z,102404.52
2019-04-18T14:53:21.033Z,102410.33
2019-04-18T14:55:47.844Z,102408.30
2019-04-18T14:58:14.967Z,102402.72
2019-04-18T15:00:44.162Z,102400.94
2019-04-18T15:03:10.556Z,102400.55
2019-04-18T15:05:37.391Z,102401.73
2019-04-18T15:08:04.874Z,102397.83
2019-04-18T15:10:32.162Z,102402.80
2019-04-18T15:12:59.074Z,102400.69
2019-04-18T15:15:25.954Z,102403.59
2019-04-18T15:17:52.744Z,102405.91
2019-04-18T15:20:20.055Z,102402.28
2019-04-18T15:22:47.029Z,102403.52
2019-04-18T15:25:14.879Z,102408.83
2019-04-18T15:27:41.870Z,102385.11
2019-04-18T15:30:10.644Z,102405.48
2019-04-18T15:32:37.677Z,102392.73
2019-04-18T15:35:04.944Z,102400.22
2019-04-18T15:37:31.731Z,102394.47
2019-04-18T15:39:58.527Z,102395.63
2019-04-18T15:42:25.786Z,102403.14
2019-04-18T15:44:54.592Z,102394.21
2019-04-18T15:47:22.528Z,102397.61
2019-04-18T15:49:49.306Z,102397.53
2019-04-18T15:52:16.077Z,102392.16
2019-04-18T15:54:42.888Z,102392.87
2019-04-18T15:57:10.803Z,102393.08
2019-04-18T15:59:39.036Z,102396.16
2019-04-18T16:02:09.175Z,102394.55
2019-04-18T16:04:42.907Z,102390.62
2019-04-18T16:07:09.275Z,102391.59
2019-04-18T16:09:38.875Z,102389.22
2019-04-18T16:12:06.923Z,102397.50
2019-04-18T16:15:01.096Z,102393.05
2019-04-18T16:17:29.305Z,102396.82
2019-04-18T16:19:58.054Z,102397.67
2019-04-18T16:22:25.136Z,102396.50
2019-04-18T16:24:52.158Z,102386.67
2019-04-18T16:27:18.929Z,102392.42
2019-04-18T16:29:46.136Z,102385.67
2019-04-18T16:32:14.064Z,102392.47
2019-04-18T16:34:41.266Z,102381.39
2019-04-18T16:37:08.065Z,102384.83
2019-04-18T16:39:44.887Z,102379.71
2019-04-18T16:42:03.540Z,102387.62
2019-04-18T16:44:30.248Z,102383.08
2019-04-18T16:46:57.218Z,102386.91
2019-04-18T16:49:24.257Z,102386.33
2019-04-18T16:51:51.045Z,102390.45
2019-04-18T16:54:17.711Z,102393.41
2019-04-18T16:56:44.466Z,102388.54
2019-04-18T16:59:11.286Z,102391.95
2019-04-18T17:01:37.962Z,102394.77
2019-04-18T17:04:12.426Z,102392.08
2019-04-18T17:06:33.362Z,102394.09
2019-04-18T17:09:00.089Z,102391.95
2019-04-18T17:11:27.254Z,102394.00
2019-04-18T17:13:54.038Z,102391.33
2019-04-18T17:16:22.318Z,102398.38
2019-04-18T17:18:49.529Z,102396.59
2019-04-18T17:21:16.444Z,102397.64
2019-04-18T17:23:43.137Z,102400.05
2019-04-18T17:26:09.955Z,102395.66
2019-04-18T17:28:36.831Z,102402.69
2019-04-18T17:31:21.023Z,102399.80
2019-04-18T17:33:50.153Z,102402.23
2019-04-18T17:36:48.499Z,102401.08
2019-04-18T17:39:33.238Z,102407.59
2019-04-18T17:41:59.689Z,102408.67
2019-04-18T17:44:42.877Z,102410.44
2019-04-18T17:47:12.121Z,102414.92
2019-04-18T17:50:00.221Z,102419.16
2019-04-18T17:52:49.082Z,102419.27
2019-04-18T17:55:47.838Z,102419.33
2019-04-18T17:58:22.214Z,102421.81
2019-04-18T18:01:05.879Z,102428.59
2019-04-18T18:03:46.726Z,102422.73
2019-04-18T18:06:26.630Z,102429.53
2019-04-18T18:09:02.322Z,102433.33
2019-04-18T18:11:38.130Z,102428.61
2019-04-18T18:14:22.751Z,102432.20
2019-04-18T18:16:44.818Z,102427.77
2019-04-18T18:19:34.269Z,102437.86
2019-04-18T18:22:06.848Z,102444.47
2019-04-18T18:24:46.758Z,102450.39
2019-04-18T18:27:26.082Z,102447.83
2019-04-18T18:29:53.533Z,102446.42
2019-04-18T18:32:19.027Z,102446.48
2019-04-18T18:34:56.015Z,102452.84
2019-04-18T18:37:30.923Z,102455.89
2019-04-18T18:39:51.616Z,102457.94
2019-04-18T18:42:19.477Z,102459.27
2019-04-18T18:44:50.588Z,102461.94
2019-04-18T18:47:13.706Z,102464.73
2019-04-18T18:49:40.591Z,102468.38
2019-04-18T18:52:07.641Z,102467.52
2019-04-18T18:54:38.870Z,102469.46
2019-04-18T18:57:11.135Z,102473.61
2019-04-18T18:59:35.790Z,102470.34
2019-04-18T19:02:08.915Z,102477.88
2019-04-18T19:04:31.697Z,102479.12
2019-04-18T19:07:00.201Z,102486.17
2019-04-18T19:09:45.438Z,102484.52
2019-04-18T19:12:06.479Z,102483.00
2019-04-18T19:14:34.055Z,102487.02
2019-04-18T19:17:03.298Z,102489.53
2019-04-18T19:19:22.190Z,102492.02
2019-04-18T19:21:55.510Z,102491.48
2019-04-18T19:24:19.162Z,102491.98
2019-04-18T19:26:50.512Z,102498.95
2019-04-18T19:29:22.472Z,102500.39
2019-04-18T19:31:46.187Z,102499.89
2019-04-18T19:34:18.216Z,102498.69
2019-04-18T19:36:58.221Z,102498.90
2019-04-18T19:39:26.446Z,102505.41
2019-04-18T19:41:44.728Z,102499.71
2019-04-18T19:44:13.869Z,102502.44
2019-04-18T19:46:36.814Z,102506.86
2019-04-18T19:49:05.108Z,102506.86
2019-04-18T19:51:38.488Z,102501.73
2019-04-18T19:54:02.769Z,102501.73
2019-04-18T19:56:30.658Z,102511.13
2019-04-18T19:58:58.385Z,102506.80
2019-04-18T20:01:26.022Z,102508.31
2019-04-18T20:03:52.822Z,102508.31
2019-04-18T20:06:31.177Z,102517.48
2019-04-18T20:09:07.059Z,102517.48
2019-04-18T20:11:25.124Z,102514.58
2019-04-18T20:13:52.713Z,102522.15
2019-04-18T20:16:14.395Z,102521.79
2019-04-18T20:18:43.421Z,102521.79
2019-04-18T20:21:10.294Z,102526.23
2019-04-18T20:23:37.055Z,102524.03
2019-04-18T20:26:03.797Z,102526.78
2019-04-18T20:28:31.474Z,102526.78
2019-04-18T20:31:02.939Z,102530.32
2019-04-18T20:33:30.132Z,102527.61
2019-04-18T20:35:59.274Z,102527.61
2019-04-18T20:38:31.287Z,102529.31
2019-04-18T20:41:15.387Z,102538.55
2019-04-18T20:43:30.526Z,102544.20
2019-04-18T20:46:07.858Z,102539.98
2019-04-18T20:48:30.834Z,102544.70
2019-04-18T20:50:58.620Z,102544.70
2019-04-18T20:53:42.947Z,102549.09
2019-04-18T20:55:57.261Z,102552.23
2019-04-18T20:58:25.644Z,102545.53
2019-04-18T21:00:44.903Z,102548.72
2019-04-18T21:03:14.557Z,102541.67
2019-04-18T21:05:44.180Z,102555.33
2019-04-18T21:08:22.837Z,102555.19
2019-04-18T21:10:43.414Z,102558.86
2019-04-18T21:13:07.952Z,102558.48
2019-04-18T21:15:35.010Z,102557.30
2019-04-18T21:18:06.415Z,102559.16
2019-04-18T21:20:30.526Z,102556.52
2019-04-18T21:22:57.288Z,102556.48
2019-04-18T21:25:24.144Z,102561.81
2019-04-18T21:27:53.864Z,102561.20
2019-04-18T21:30:22.359Z,102568.34
2019-04-18T21:32:50.540Z,102562.39
2019-04-18T21:35:19.205Z,102564.08
2019-04-18T21:37:55.683Z,102565.23
2019-04-18T21:40:17.685Z,102565.23
2019-04-18T21:42:44.883Z,102567.44
2019-04-18T21:45:12.180Z,102566.72
2019-04-18T21:47:39.707Z,102568.76
2019-04-18T21:50:10.219Z,102576.95
2019-04-18T21:52:36.339Z,102570.72
2019-04-18T21:55:04.716Z,102578.47
2019-04-18T21:57:35.674Z,102574.84
2019-04-18T22:00:10.922Z,102573.78
2019-04-18T22:02:35.039Z,102578.66
2019-04-18T22:05:04.335Z,102578.59
2019-04-18T22:07:41.849Z,102579.09
2019-04-18T22:09:59.107Z,102574.22
2019-04-18T22:12:30.983Z,102579.35
2019-04-18T22:15:00.051Z,102576.84
2019-04-18T22:17:24.406Z,102577.59
2019-04-18T22:19:51.528Z,102582.59
2019-04-18T22:22:22.013Z,102583.97
2019-04-18T22:24:50.461Z,102587.18
2019-04-18T22:27:18.463Z,102584.84
2019-04-18T22:29:45.715Z,102598.00
2019-04-18T22:32:14.617Z,102590.11
2019-04-18T22:34:41.163Z,102595.55
2019-04-18T22:37:16.863Z,102592.17
2019-04-18T22:39:38.465Z,102595.04
2019-04-18T22:42:14.094Z,102598.88
2019-04-18T22:44:35.745Z,102599.42
2019-04-18T22:47:08.547Z,102595.80
2019-04-18T22:49:32.083Z,102595.86
2019-04-18T22:52:01.444Z,102590.55
2019-04-18T22:54:33.339Z,102594.30
2019-04-18T22:56:59.051Z,102592.45
2019-04-18T22:59:27.987Z,102589.20
2019-04-18T23:01:59.540Z,102590.34
2019-04-18T23:04:24.081Z,102590.53
2019-04-18T23:06:51.541Z,102593.23
2019-04-18T23:09:20.234Z,102595.03
2019-04-18T23:11:54.838Z,102592.91
2019-04-18T23:14:18.505Z,102594.39
2019-04-18T23:16:51.616Z,102592.45
2019-04-18T23:19:15.299Z,102596.17
2019-04-18T23:21:51.395Z,102594.92
2019-04-18T23:24:12.687Z,102596.07
2019-04-18T23:26:47.711Z,102596.69
2019-04-18T23:29:12.124Z,102596.13
2019-04-18T23:31:38.022Z,102591.50
2019-04-18T23:34:07.089Z,102587.80
2019-04-18T23:36:39.211Z,102587.80
2019-04-18T23:39:13.322Z,102588.03
2019-04-18T23:41:34.273Z,102589.11
2019-04-18T23:44:07.879Z,102591.05
2019-04-18T23:46:30.915Z,102592.39
2019-04-18T23:48:58.530Z,102592.25
2019-04-18T23:51:26.554Z,102589.31
2019-04-18T23:53:54.827Z,102592.35
2019-04-18T23:56:24.232Z,102591.66
2019-04-18T23:58:53.520Z,102588.80
